createdAt,value
2023-05-25T00:00:11.175Z,11.35
2023-05-25T00:02:39.554Z,10.35
2023-05-25T00:05:09.156Z,10.77
2023-05-25T00:07:35.773Z,11.93
2023-05-25T00:10:02.359Z,11.13
2023-05-25T00:12:28.854Z,9.68
2023-05-25T00:14:55.395Z,14.07
2023-05-25T00:17:21.908Z,14.80
2023-05-25T00:19:48.672Z,10.43
2023-05-25T00:22:15.403Z,9.57
2023-05-25T00:24:41.890Z,8.70
2023-05-25T00:27:08.733Z,10.60
2023-05-25T00:29:36.244Z,11.20
2023-05-25T00:32:03.313Z,10.18
2023-05-25T00:34:29.735Z,11.88
2023-05-25T00:36:56.296Z,10.50
2023-05-25T00:39:22.971Z,8.85
2023-05-25T00:41:49.999Z,13.95
2023-05-25T00:44:21.298Z,9.55
2023-05-25T00:46:50.219Z,11.95
2023-05-25T00:49:19.121Z,11.82
2023-05-25T00:51:47.622Z,12.00
2023-05-25T00:54:16.023Z,8.98
2023-05-25T00:57:04.130Z,13.80
2023-05-25T00:59:40.756Z,10.35
2023-05-25T01:02:10.171Z,11.20
2023-05-25T01:04:42.244Z,9.95
2023-05-25T01:07:11.252Z,13.18
2023-05-25T01:09:40.732Z,15.18
2023-05-25T01:12:09.119Z,10.77
2023-05-25T01:14:39.676Z,15.80
2023-05-25T01:17:06.821Z,13.48
2023-05-25T01:19:35.793Z,15.23
2023-05-25T01:22:13.341Z,11.25
2023-05-25T01:24:46.692Z,15.02
2023-05-25T01:27:32.508Z,12.30
2023-05-25T01:29:59.969Z,11.23
2023-05-25T01:32:27.068Z,12.45
2023-05-25T01:34:56.652Z,11.05
2023-05-25T01:37:26.251Z,15.80
2023-05-25T01:39:52.768Z,13.63
2023-05-25T01:42:19.181Z,10.88
2023-05-25T01:44:45.767Z,12.88
2023-05-25T01:47:41.185Z,13.45
2023-05-25T01:50:24.026Z,13.25
2023-05-25T01:53:19.318Z,9.33
2023-05-25T01:56:08.438Z,14.82
2023-05-25T01:58:39.901Z,10.77
2023-05-25T02:01:09.541Z,10.57
2023-05-25T02:03:38.018Z,11.07
2023-05-25T02:06:04.731Z,14.13
2023-05-25T02:08:34.700Z,12.80
2023-05-25T02:11:01.518Z,14.25
2023-05-25T02:13:28.445Z,11.85
2023-05-25T02:15:55.063Z,13.77
2023-05-25T02:18:22.201Z,12.85
2023-05-25T02:20:48.830Z,10.98
2023-05-25T02:23:15.441Z,13.13
2023-05-25T02:25:42.750Z,10.07
2023-05-25T02:28:09.627Z,10.70
2023-05-25T02:30:36.263Z,16.67
2023-05-25T02:33:02.784Z,11.45
2023-05-25T02:35:29.418Z,9.55
2023-05-25T02:37:56.077Z,12.73
2023-05-25T02:40:22.676Z,10.15
2023-05-25T02:42:49.151Z,9.75
2023-05-25T02:45:16.843Z,11.38
2023-05-25T02:47:43.386Z,11.15
2023-05-25T02:50:10.148Z,9.95
2023-05-25T02:52:42.565Z,12.85
2023-05-25T02:55:13.589Z,14.02
2023-05-25T02:57:42.757Z,11.55
2023-05-25T03:00:12.364Z,11.63
2023-05-25T03:02:39.367Z,14.88
2023-05-25T03:05:06.433Z,14.45
2023-05-25T03:07:34.404Z,13.95
2023-05-25T03:10:00.913Z,9.90
2023-05-25T03:12:27.392Z,11.73
2023-05-25T03:14:53.948Z,13.05
2023-05-25T03:17:22.205Z,15.45
2023-05-25T03:19:48.780Z,13.55
2023-05-25T03:22:15.588Z,13.98
2023-05-25T03:24:44.934Z,14.07
2023-05-25T03:27:11.930Z,12.75
2023-05-25T03:29:38.710Z,15.23
2023-05-25T03:32:05.938Z,13.48
2023-05-25T03:34:35.239Z,10.57
2023-05-25T03:37:03.441Z,13.88
2023-05-25T03:39:30.380Z,15.93
2023-05-25T03:41:58.067Z,15.35
2023-05-25T03:44:25.232Z,14.18
2023-05-25T03:46:51.927Z,15.15
2023-05-25T03:49:18.465Z,13.73
2023-05-25T03:51:45.128Z,11.13
2023-05-25T03:54:13.372Z,14.07
2023-05-25T03:56:39.809Z,14.80
2023-05-25T03:59:06.441Z,11.52
2023-05-25T04:01:33.063Z,13.55
2023-05-25T04:04:00.149Z,13.02
2023-05-25T04:06:26.706Z,12.18
2023-05-25T04:08:53.172Z,16.98
2023-05-25T04:11:20.844Z,15.45
2023-05-25T04:13:47.285Z,15.38
2023-05-25T04:16:14.535Z,16.08
2023-05-25T04:18:41.545Z,15.90
2023-05-25T04:21:08.021Z,14.18
2023-05-25T04:23:34.532Z,20.75
2023-05-25T04:26:01.534Z,15.98
2023-05-25T04:28:28.290Z,12.88
2023-05-25T04:31:09.584Z,15.75
2023-05-25T04:33:49.853Z,16.65
2023-05-25T04:36:28.124Z,17.55
2023-05-25T04:38:55.315Z,17.33
2023-05-25T04:41:23.326Z,12.60
2023-05-25T04:44:06.918Z,15.70
2023-05-25T04:46:38.890Z,12.80
2023-05-25T04:49:08.196Z,17.42
2023-05-25T04:51:35.805Z,14.40
2023-05-25T04:54:02.824Z,18.40
2023-05-25T04:56:29.563Z,23.10
2023-05-25T04:58:57.044Z,13.25
2023-05-25T05:01:24.296Z,16.52
2023-05-25T05:03:58.970Z,13.50
2023-05-25T05:06:25.734Z,16.60
2023-05-25T05:08:52.355Z,14.48
2023-05-25T05:11:18.799Z,16.17
2023-05-25T05:13:45.440Z,13.68
2023-05-25T05:16:11.913Z,13.40
2023-05-25T05:18:39.533Z,18.05
2023-05-25T05:21:06.425Z,14.10
2023-05-25T05:23:34.730Z,19.30
2023-05-25T05:26:01.393Z,14.82
2023-05-25T05:28:29.853Z,17.90
2023-05-25T05:30:57.739Z,12.80
2023-05-25T05:33:25.171Z,13.43
2023-05-25T05:35:54.591Z,13.55
2023-05-25T05:38:22.289Z,16.38
2023-05-25T05:40:48.798Z,13.40
2023-05-25T05:43:20.276Z,17.05
2023-05-25T05:45:47.441Z,14.13
2023-05-25T05:48:14.326Z,12.55
2023-05-25T05:50:42.209Z,11.10
2023-05-25T05:53:11.044Z,13.55
2023-05-25T05:55:37.727Z,19.52
2023-05-25T05:58:04.370Z,18.30
2023-05-25T06:00:32.367Z,17.48
2023-05-25T06:03:00.209Z,19.60
2023-05-25T06:05:28.622Z,17.02
2023-05-25T06:07:56.078Z,19.85
2023-05-25T06:10:22.822Z,15.15
2023-05-25T06:12:50.694Z,17.23
2023-05-25T06:15:17.887Z,20.70
2023-05-25T06:17:46.615Z,16.33
2023-05-25T06:20:14.992Z,13.50
2023-05-25T06:22:42.205Z,16.50
2023-05-25T06:25:10.326Z,16.92
2023-05-25T06:27:37.704Z,18.30
2023-05-25T06:30:04.538Z,19.58
2023-05-25T06:32:31.063Z,17.60
2023-05-25T06:34:58.053Z,18.38
2023-05-25T06:37:24.547Z,15.20
2023-05-25T06:39:51.018Z,17.63
2023-05-25T06:42:18.273Z,17.85
2023-05-25T06:44:52.514Z,14.38
2023-05-25T06:47:19.545Z,16.77
2023-05-25T06:49:47.005Z,16.63
2023-05-25T06:52:13.475Z,14.98
2023-05-25T06:54:40.007Z,21.05
2023-05-25T06:57:06.674Z,18.60
2023-05-25T06:59:33.191Z,13.80
2023-05-25T07:02:00.299Z,16.20
2023-05-25T07:04:28.337Z,21.10
2023-05-25T07:06:54.823Z,19.60
2023-05-25T07:09:22.150Z,14.88
2023-05-25T07:11:48.861Z,15.50
2023-05-25T07:14:15.460Z,16.23
2023-05-25T07:16:42.015Z,13.45
2023-05-25T07:19:08.945Z,19.35
2023-05-25T07:21:36.465Z,15.77
2023-05-25T07:24:03.754Z,15.85
2023-05-25T07:26:32.082Z,18.98
2023-05-25T07:28:58.638Z,17.27
2023-05-25T07:31:25.131Z,14.55
2023-05-25T07:33:53.334Z,15.25
2023-05-25T07:36:19.814Z,15.82
2023-05-25T07:38:47.297Z,14.77
2023-05-25T07:41:13.807Z,14.20
2023-05-25T07:43:40.409Z,13.45
2023-05-25T07:46:06.855Z,14.00
2023-05-25T07:48:33.286Z,19.88
2023-05-25T07:50:59.702Z,19.02
2023-05-25T07:53:26.419Z,19.40
2023-05-25T07:55:52.842Z,21.23
2023-05-25T07:58:19.453Z,19.60
2023-05-25T08:00:45.892Z,13.00
2023-05-25T08:03:12.442Z,12.32
2023-05-25T08:05:39.917Z,12.63
2023-05-25T08:08:06.389Z,9.82
2023-05-25T08:10:32.941Z,15.05
2023-05-25T08:12:59.677Z,13.13
2023-05-25T08:15:26.578Z,11.75
2023-05-25T08:17:53.152Z,12.15
2023-05-25T08:20:19.668Z,12.57
2023-05-25T08:22:46.210Z,10.13
2023-05-25T08:25:12.853Z,14.00
2023-05-25T08:27:39.378Z,10.23
2023-05-25T08:30:06.528Z,8.73
2023-05-25T08:32:33.298Z,11.23
2023-05-25T08:34:59.881Z,11.20
2023-05-25T08:37:26.663Z,10.65
2023-05-25T08:39:53.580Z,12.02
2023-05-25T08:42:20.475Z,10.90
2023-05-25T08:44:47.196Z,14.35
2023-05-25T08:47:15.282Z,9.95
2023-05-25T08:49:44.509Z,10.82
2023-05-25T08:52:13.979Z,10.05
2023-05-25T08:54:44.155Z,11.32
2023-05-25T08:57:17.154Z,8.95
2023-05-25T09:00:13.113Z,9.00
2023-05-25T09:02:47.041Z,9.32
2023-05-25T09:05:13.667Z,10.35
2023-05-25T09:07:42.790Z,9.05
2023-05-25T09:10:11.149Z,8.45
2023-05-25T09:12:38.777Z,8.88
2023-05-25T09:15:06.083Z,9.10
2023-05-25T09:17:33.216Z,10.82
2023-05-25T09:20:01.064Z,12.32
2023-05-25T09:22:27.662Z,7.45
2023-05-25T09:24:54.971Z,8.45
2023-05-25T09:27:23.241Z,7.10
2023-05-25T09:29:50.973Z,7.90
2023-05-25T09:32:20.432Z,8.25
2023-05-25T09:34:47.607Z,7.50
2023-05-25T09:37:16.366Z,6.50
2023-05-25T09:39:44.354Z,7.45
2023-05-25T09:42:11.968Z,6.03
2023-05-25T09:44:42.709Z,7.05
2023-05-25T09:47:09.401Z,8.32
2023-05-25T09:49:36.366Z,11.48
2023-05-25T09:52:03.154Z,6.63
2023-05-25T09:54:29.653Z,9.82
2023-05-25T09:56:56.170Z,8.18
2023-05-25T09:59:23.050Z,8.63
2023-05-25T10:01:53.519Z,9.30
2023-05-25T10:04:20.903Z,9.73
2023-05-25T10:06:51.484Z,9.90
2023-05-25T10:09:19.488Z,10.63
2023-05-25T10:11:46.403Z,7.85
2023-05-25T10:14:15.915Z,9.68
2023-05-25T10:16:44.899Z,6.45
2023-05-25T10:19:37.578Z,7.10
2023-05-25T10:22:10.719Z,12.40
2023-05-25T10:24:46.304Z,11.52
2023-05-25T10:29:52.368Z,13.18
2023-05-25T10:32:19.059Z,10.63
2023-05-25T10:34:46.860Z,7.75
2023-05-25T10:37:14.439Z,8.95
2023-05-25T10:39:44.457Z,10.30
2023-05-25T10:42:12.918Z,7.20
2023-05-25T10:44:42.298Z,7.18
2023-05-25T10:47:09.781Z,8.00
2023-05-25T10:49:58.466Z,10.15
2023-05-25T10:52:29.641Z,10.40
2023-05-25T10:55:04.827Z,10.30
2023-05-25T10:57:31.449Z,8.43
2023-05-25T11:00:06.348Z,5.80
2023-05-25T11:02:55.832Z,7.07
2023-05-25T11:05:25.802Z,8.45
2023-05-25T11:07:53.800Z,8.50
2023-05-25T11:10:48.298Z,8.82
2023-05-25T11:13:32.236Z,7.75
2023-05-25T11:16:17.666Z,10.02
2023-05-25T11:18:58.845Z,7.82
2023-05-25T11:21:28.951Z,8.73
2023-05-25T11:24:12.278Z,9.40
2023-05-25T11:26:53.553Z,9.70
2023-05-25T11:29:20.808Z,9.85
2023-05-25T11:31:52.655Z,7.45
2023-05-25T11:34:21.698Z,9.70
2023-05-25T11:36:48.131Z,12.85
2023-05-25T11:39:22.376Z,8.70
2023-05-25T11:41:52.754Z,9.95
2023-05-25T11:44:31.102Z,8.85
2023-05-25T11:47:02.031Z,12.48
2023-05-25T11:49:28.990Z,7.82
2023-05-25T11:51:57.344Z,7.97
2023-05-25T11:54:28.984Z,8.45
2023-05-25T11:56:59.096Z,11.85
2023-05-25T11:59:28.744Z,11.45
2023-05-25T12:02:01.058Z,9.38
2023-05-25T12:04:29.135Z,8.52
2023-05-25T12:07:05.921Z,10.23
2023-05-25T12:09:33.142Z,12.43
2023-05-25T12:12:00.706Z,8.30
2023-05-25T12:14:27.220Z,9.07
2023-05-25T12:16:54.379Z,9.55
2023-05-25T12:19:21.773Z,7.68
2023-05-25T12:21:51.199Z,10.13
2023-05-25T12:24:18.269Z,6.95
2023-05-25T12:26:57.253Z,6.93
2023-05-25T12:29:25.113Z,7.40
2023-05-25T12:31:52.442Z,7.00
2023-05-25T12:34:20.164Z,6.10
2023-05-25T12:36:51.939Z,6.38
2023-05-25T12:39:30.536Z,9.60
2023-05-25T12:41:59.218Z,5.63
2023-05-25T12:44:33.063Z,6.63
2023-05-25T12:47:24.948Z,6.25
2023-05-25T12:49:53.574Z,8.50
2023-05-25T12:52:36.808Z,6.80
2023-05-25T12:55:18.548Z,8.52
2023-05-25T12:57:46.957Z,7.40
2023-05-25T13:00:14.020Z,7.30
2023-05-25T13:02:48.788Z,6.18
2023-05-25T13:05:24.297Z,9.63
2023-05-25T13:07:52.173Z,4.80
2023-05-25T13:10:18.912Z,8.05
2023-05-25T13:12:47.715Z,7.13
2023-05-25T13:15:17.550Z,7.50
2023-05-25T13:17:45.081Z,5.43
2023-05-25T13:20:13.756Z,4.97
2023-05-25T13:22:42.607Z,5.15
2023-05-25T13:25:10.751Z,5.63
2023-05-25T13:27:37.998Z,9.35
2023-05-25T13:30:06.223Z,5.70
2023-05-25T13:32:34.032Z,6.03
2023-05-25T13:35:01.042Z,4.80
2023-05-25T13:37:30.449Z,6.05
2023-05-25T13:39:58.168Z,5.38
2023-05-25T13:42:24.630Z,7.78
2023-05-25T13:44:51.139Z,5.30
2023-05-25T13:47:18.345Z,5.88
2023-05-25T13:49:44.851Z,5.82
2023-05-25T13:52:11.449Z,6.07
2023-05-25T13:54:37.954Z,5.57
2023-05-25T13:57:04.700Z,6.28
2023-05-25T13:59:31.190Z,6.43
2023-05-25T14:01:57.785Z,5.00
2023-05-25T14:04:24.493Z,7.15
2023-05-25T14:09:17.980Z,6.95
2023-05-25T14:11:44.388Z,7.03
2023-05-25T14:14:23.281Z,6.13
2023-05-25T14:16:56.976Z,5.55
2023-05-25T14:19:23.482Z,7.35
2023-05-25T14:22:03.900Z,6.75
2023-05-25T14:24:36.376Z,6.80
2023-05-25T14:27:03.167Z,7.43
2023-05-25T14:29:29.699Z,6.60
2023-05-25T14:31:56.378Z,9.68
2023-05-25T14:34:22.961Z,11.32
2023-05-25T14:36:49.810Z,7.78
2023-05-25T14:39:17.466Z,8.45
2023-05-25T14:41:44.223Z,6.68
2023-05-25T14:44:11.151Z,5.07
2023-05-25T14:46:38.080Z,5.10
2023-05-25T14:49:04.779Z,8.10
2023-05-25T14:51:31.242Z,6.38
2023-05-25T14:54:00.314Z,5.65
2023-05-25T14:56:27.482Z,5.15
2023-05-25T14:58:53.902Z,5.07
2023-05-25T15:01:23.694Z,5.22
2023-05-25T15:03:52.308Z,6.28
2023-05-25T15:06:19.487Z,6.30
2023-05-25T15:08:46.146Z,5.47
2023-05-25T15:11:12.604Z,5.25
2023-05-25T15:13:40.579Z,4.90
2023-05-25T15:16:11.655Z,4.18
2023-05-25T15:18:38.844Z,6.43
2023-05-25T15:21:05.563Z,6.57
2023-05-25T15:23:32.078Z,5.95
2023-05-25T15:26:03.000Z,9.18
2023-05-25T15:28:32.241Z,5.10
2023-05-25T15:31:01.708Z,5.95
2023-05-25T15:33:39.906Z,7.43
2023-05-25T15:36:14.769Z,5.25
2023-05-25T15:38:43.086Z,4.20
2023-05-25T15:41:09.575Z,6.60
2023-05-25T15:43:35.989Z,6.05
2023-05-25T15:46:02.583Z,7.55
2023-05-25T15:48:29.008Z,7.18
2023-05-25T15:50:55.460Z,7.72
2023-05-25T15:53:22.008Z,8.40
2023-05-25T15:55:48.768Z,6.65
2023-05-25T15:58:16.616Z,5.68
2023-05-25T16:00:43.076Z,6.72
2023-05-25T16:03:09.531Z,5.55
2023-05-25T16:05:36.003Z,6.05
2023-05-25T16:08:02.472Z,8.55
2023-05-25T16:10:28.890Z,7.80
2023-05-25T16:12:55.336Z,7.55
2023-05-25T16:15:23.557Z,7.90
2023-05-25T16:17:50.010Z,9.93
2023-05-25T16:20:16.493Z,9.40
2023-05-25T16:22:43.051Z,6.53
2023-05-25T16:25:09.695Z,6.35
2023-05-25T16:27:36.216Z,4.88
2023-05-25T16:30:02.754Z,9.23
2023-05-25T16:32:29.556Z,8.13
2023-05-25T16:34:56.265Z,7.55
2023-05-25T16:37:22.730Z,7.72
2023-05-25T16:39:49.168Z,7.57
2023-05-25T16:42:15.670Z,8.18
2023-05-25T16:44:42.089Z,9.40
2023-05-25T16:47:08.539Z,8.48
2023-05-25T16:49:34.944Z,6.68
2023-05-25T16:52:05.118Z,9.65
2023-05-25T16:54:31.643Z,6.97
2023-05-25T16:56:58.629Z,7.40
2023-05-25T16:59:25.038Z,12.00
2023-05-25T17:01:51.905Z,11.35
2023-05-25T17:04:18.437Z,7.65
2023-05-25T17:06:44.867Z,6.03
2023-05-25T17:09:11.901Z,12.07
2023-05-25T17:11:38.444Z,10.68
2023-05-25T17:14:04.921Z,7.90
2023-05-25T17:16:31.570Z,7.75
2023-05-25T17:18:58.136Z,11.68
2023-05-25T17:21:24.561Z,13.40
2023-05-25T17:23:50.992Z,8.38
2023-05-25T17:26:17.443Z,10.98
2023-05-25T17:28:44.120Z,11.93
2023-05-25T17:31:10.706Z,9.85
2023-05-25T17:33:38.720Z,11.25
2023-05-25T17:36:05.719Z,9.93
2023-05-25T17:38:34.291Z,9.55
2023-05-25T17:41:00.788Z,9.00
2023-05-25T17:43:27.751Z,9.73
2023-05-25T17:45:54.220Z,8.68
2023-05-25T17:48:20.725Z,12.82
2023-05-25T17:50:47.157Z,13.52
2023-05-25T17:53:13.716Z,11.05
2023-05-25T17:55:40.473Z,10.88
2023-05-25T17:58:07.395Z,12.13
2023-05-25T18:00:34.401Z,10.57
2023-05-25T18:03:01.034Z,8.55
2023-05-25T18:05:27.697Z,11.30
2023-05-25T18:07:54.142Z,12.00
2023-05-25T18:10:20.584Z,10.07
2023-05-25T18:12:49.119Z,13.77
2023-05-25T18:15:15.696Z,9.07
2023-05-25T18:17:42.264Z,12.93
2023-05-25T18:20:09.459Z,15.15
2023-05-25T18:22:36.340Z,18.55
2023-05-25T18:25:03.685Z,13.63
2023-05-25T18:27:30.161Z,10.57
2023-05-25T18:29:56.625Z,11.40
2023-05-25T18:32:23.609Z,13.52
2023-05-25T18:34:50.271Z,12.75
2023-05-25T18:37:16.782Z,12.90
2023-05-25T18:39:43.267Z,15.05
2023-05-25T18:42:09.686Z,12.57
2023-05-25T18:44:36.518Z,10.82
2023-05-25T18:47:02.954Z,16.05
2023-05-25T18:49:34.335Z,14.82
2023-05-25T18:52:01.483Z,11.05
2023-05-25T18:54:28.070Z,14.90
2023-05-25T18:56:55.444Z,10.80
2023-05-25T18:59:21.928Z,12.57
2023-05-25T19:01:48.394Z,11.90
2023-05-25T19:04:15.402Z,15.32
2023-05-25T19:06:41.893Z,13.27
2023-05-25T19:09:08.623Z,12.55
2023-05-25T19:11:35.192Z,14.57
2023-05-25T19:14:01.754Z,14.52
2023-05-25T19:16:28.253Z,13.45
2023-05-25T19:18:54.771Z,16.30
2023-05-25T19:21:21.193Z,11.57
2023-05-25T19:23:47.610Z,10.05
2023-05-25T19:26:14.321Z,9.93
2023-05-25T19:28:40.736Z,14.07
2023-05-25T19:31:07.223Z,14.57
2023-05-25T19:33:33.779Z,15.57
2023-05-25T19:36:00.224Z,15.77
2023-05-25T19:38:34.284Z,13.90
2023-05-25T19:41:07.289Z,13.02
2023-05-25T19:43:33.823Z,17.42
2023-05-25T19:46:00.312Z,13.50
2023-05-25T19:48:27.551Z,18.08
2023-05-25T19:50:54.355Z,13.00
2023-05-25T19:53:20.876Z,12.75
2023-05-25T19:55:47.305Z,18.20
2023-05-25T19:58:13.756Z,15.18
2023-05-25T20:00:40.332Z,18.17
2023-05-25T20:03:07.162Z,15.50
2023-05-25T20:05:33.711Z,12.90
2023-05-25T20:08:00.566Z,17.70
2023-05-25T20:10:27.054Z,16.63
2023-05-25T20:12:53.535Z,15.43
2023-05-25T20:15:20.043Z,19.95
2023-05-25T20:17:46.477Z,19.77
2023-05-25T20:20:13.085Z,16.00
2023-05-25T20:22:39.626Z,15.60
2023-05-25T20:25:06.592Z,16.05
2023-05-25T20:27:33.507Z,15.30
2023-05-25T20:29:59.934Z,17.35
2023-05-25T20:32:26.462Z,20.10
2023-05-25T20:34:52.917Z,17.38
2023-05-25T20:37:19.337Z,20.25
2023-05-25T20:39:45.802Z,13.20
2023-05-25T20:42:13.897Z,17.50
2023-05-25T20:44:40.443Z,15.23
2023-05-25T20:47:07.265Z,18.45
2023-05-25T20:49:33.692Z,13.55
2023-05-25T20:52:00.485Z,14.50
2023-05-25T20:54:27.029Z,17.25
2023-05-25T20:56:53.549Z,23.95
2023-05-25T20:59:20.088Z,19.77
2023-05-25T21:01:46.563Z,16.13
2023-05-25T21:04:13.055Z,20.83
2023-05-25T21:06:39.984Z,21.65
2023-05-25T21:09:06.518Z,19.77
2023-05-25T21:11:33.161Z,21.20
2023-05-25T21:13:59.615Z,23.00
2023-05-25T21:16:26.178Z,18.95
2023-05-25T21:18:52.598Z,24.00
2023-05-25T21:21:19.063Z,26.17
2023-05-25T21:23:45.556Z,17.17
2023-05-25T21:26:12.006Z,27.90
2023-05-25T21:28:38.460Z,16.73
2023-05-25T21:31:05.051Z,15.63
2023-05-25T21:33:35.616Z,26.10
2023-05-25T21:36:02.836Z,20.45
2023-05-25T21:38:29.572Z,21.20
2023-05-25T21:40:56.044Z,22.40
2023-05-25T21:43:22.522Z,17.02
2023-05-25T21:45:49.015Z,19.40
2023-05-25T21:48:15.477Z,19.67
2023-05-25T21:50:42.027Z,21.75
2023-05-25T21:53:08.445Z,15.40
2023-05-25T21:55:34.899Z,24.05
2023-05-25T21:58:01.352Z,19.45
2023-05-25T22:00:29.232Z,17.55
2023-05-25T22:02:56.163Z,23.55
2023-05-25T22:05:23.225Z,19.73
2023-05-25T22:07:49.705Z,25.92
2023-05-25T22:10:16.186Z,18.25
2023-05-25T22:12:42.656Z,16.90
2023-05-25T22:15:09.474Z,22.67
2023-05-25T22:17:36.014Z,20.38
2023-05-25T22:22:32.048Z,22.77
2023-05-25T22:24:58.521Z,22.58
2023-05-25T22:27:24.975Z,16.17
2023-05-25T22:29:51.726Z,18.17
2023-05-25T22:32:18.151Z,16.13
2023-05-25T22:34:44.631Z,17.75
2023-05-25T22:37:11.524Z,19.85
2023-05-25T22:39:37.965Z,20.80
2023-05-25T22:42:04.733Z,21.92
2023-05-25T22:44:31.169Z,15.50
2023-05-25T22:46:57.634Z,23.58
2023-05-25T22:49:24.066Z,16.35
2023-05-25T22:51:50.512Z,20.38
2023-05-25T22:54:19.245Z,19.60
2023-05-25T22:56:45.863Z,19.55
2023-05-25T22:59:13.146Z,27.27
2023-05-25T23:01:39.602Z,21.88
2023-05-25T23:04:06.268Z,27.02
2023-05-25T23:06:32.792Z,22.33
2023-05-25T23:08:59.262Z,23.23
2023-05-25T23:11:27.003Z,27.02
2023-05-25T23:13:54.622Z,21.45
2023-05-25T23:16:21.246Z,22.58
2023-05-25T23:18:47.742Z,19.67
2023-05-25T23:21:14.282Z,20.85
2023-05-25T23:23:41.194Z,24.92
2023-05-25T23:26:07.763Z,22.73
2023-05-25T23:28:34.401Z,15.80
2023-05-25T23:31:01.488Z,16.33
2023-05-25T23:33:29.112Z,23.15
2023-05-25T23:35:55.701Z,17.67
2023-05-25T23:38:22.220Z,22.08
2023-05-25T23:40:48.823Z,17.35
2023-05-25T23:43:16.242Z,21.67
2023-05-25T23:45:42.910Z,26.95
2023-05-25T23:48:09.604Z,20.15
2023-05-25T23:50:36.138Z,19.75
2023-05-25T23:53:02.555Z,22.65
2023-05-25T23:55:28.982Z,20.35
2023-05-25T23:57:55.392Z,15.32
